< < Back
Terminal Aerodrome Forecast


Current Version              Previous Versions:   1  2  3  4  5  6  7  8  9  

Terminal Aerodrome Forecast

615
FTUS42 KGSP 242320
TAFHKY
TAF
KHKY 242320Z 2500/2524 22003KT P6SM FEW070
     FM251500 23005KT P6SM SCT050
     FM251800 23006KT P6SM BKN060=

Latest METAR

011
SAUS70 KWBC 251400 RRI
MTRHKY
METAR KHKY 251353Z 00000KT 10SM CLR 21/12 A3024 RMK AO2 SLP223
T02110122


USA.gov is the U.S. government's official web portal to all federal, state and local government web resources and services.